Skip Navigation Links
NOAA logo - Click to go to the NOAA homepage
NOAA's National Weather Service
Alaska Aviation Weather Unit
  NWS logo - Click to go to the NWS homepage
Left Navbar Graphic     10 AKDT = 18 GMT

   
NOAA is celebrating 200 years of science, service, and stewardship. Visit the NOAA 200th celebration Web site to learn more.
USA.gov is the U.S. Government's official Web portal to all Federal, state and local government Web resources and services.
Facebook
NWS on Facebook

Important Change Regarding the AAWU Web Presence

 

Over the last several months, the AAWU has been working to navigate its webpages to a nationally supported server. Security, as well as other needs, have necessitated the change.  We have been given an extension for the site changeover while we diligently work at addressing feedback received. As of July 14, 2017, aawu.arh.noaa.gov will be discontinued. The new AAWU web address is weather.gov/aawu. It is now live and will run in-parallel with the old site until it is discontinued on July 14, 2017. Please continue to send any feedback or questions regarding the new webpages to nws.ar.aawu.webauthors@noaa.gov.  Thank you for your patience during this time of transition.
AAWU Home :: Display TAF Add Bookmark
METAR PAVL 261253Z AUTO 04011KT 10SM CLR M02/M04 A3011 RMK AO2 SLP195
     T10171039 TSNO PNO $=

METAR PAVL 261353Z AUTO 04006KT 10SM CLR M03/M04 A3011 RMK AO2 SLP195
     T10281044 TSNO PNO $=

METAR PAVL 261453Z AUTO 04009KT 10SM CLR M03/M05 A3010 RMK AO2 SLP193
     6//// T10281050 58001 TSNO PNO $=

METAR PAVL 261553Z AUTO 02008KT 10SM CLR M03/M05 A3010 RMK AO2 SLP192
     T10331050 TSNO PNO $=

METAR PAVL 261653Z AUTO 03006KT 10SM CLR M03/M06 A3009 RMK AO2 SLP191
     T10331056 TSNO PNO $=

METAR PAVL 261753Z AUTO 08005KT 10SM CLR M04/M06 A3010 RMK AO2 SLP192
     6//// T10391056 11017 21039 55001 TSNO PNO $=


NOAA's National Weather Service
Alaska Aviation Weather Unit
6930 Sand Lake Road
Anchorage, AK 99502-1845
Disclaimer
Credits
Glossary
Privacy Policy
About Us
Career Opportunities
Contact AAWU Internet Services Site last modified: April, 17th 2012